This is the latest recevied weather packets stored in our database for station/object WA6ODQ-13. If no packets are shown the sender has not sent any weather packets the latest 10 day(s).
| Time | Temp. | Humidity | Pressure | Rain* | Wind** | Luminosity | Snow |
|---|---|---|---|---|---|---|---|
| 1777762064 | 20.56° C | 64% | 1009.1 hPa | 0 mm | - | 584 W/m² | - |
| 1777761458 | 20.56° C | 64% | 1009.1 hPa | 0 mm | - | 427 W/m² | - |
| 1777760854 | 20° C | 64% | 1009.5 hPa | 0 mm | - | 679 W/m² | - |
| 1777760550 | 20° C | 64% | 1009.3 hPa | 0 mm | - | 459 W/m² | - |
| 1777760246 | 20° C | 65% | 1009.5 hPa | 0 mm | - | 414 W/m² | - |
| 1777759943 | 20° C | 64% | 1009.2 hPa | 0 mm | - | 391 W/m² | - |
| 1777759639 | 20° C | 64% | 1009.6 hPa | 0 mm | - | 415 W/m² | - |
| 1777759033 | 20° C | 64% | 1009.7 hPa | 0 mm | - | 527 W/m² | - |
| 1777758427 | 20.56° C | 62% | 1009.5 hPa | 0 mm | - | 652 W/m² | - |
| 1777757821 | 20° C | 64% | 1009.7 hPa | 0 mm | - | 464 W/m² | - |
| 1777757518 | 20° C | 64% | 1009.7 hPa | 0 mm | - | 471 W/m² | - |
| 1777757217 | 20° C | 63% | 1009.8 hPa | 0 mm | - | 557 W/m² | - |
| 1777756915 | 18.89° C | 66% | 1010 hPa | 0 mm | - | 542 W/m² | - |
| 1777756308 | 19.44° C | 65% | 1009.9 hPa | 0 mm | - | 430 W/m² | - |
| 1777755702 | 18.89° C | 66% | 1010.1 hPa | 0 mm | - | 488 W/m² | - |
| 1777754186 | 18.89° C | 69% | 1010.5 hPa | 0 mm | - | 611 W/m² | - |
| 1777753579 | 18.89° C | 67% | 1010.6 hPa | 0 mm | - | 730 W/m² | - |
| 1777752973 | 18.33° C | 69% | 1010.7 hPa | 0 mm | - | 656 W/m² | - |
| 1777752665 | 18.89° C | 68% | 1010.7 hPa | 0 mm | - | 718 W/m² | - |
| 1777752360 | 18.33° C | 68% | 1010.5 hPa | 0 mm | - | 680 W/m² | - |
| 1777752058 | 18.33° C | 69% | 1010.6 hPa | 0 mm | - | 777 W/m² | - |
| 1777751756 | 17.78° C | 69% | 1010.6 hPa | 0 mm | - | 649 W/m² | - |
| 1777751451 | 17.78° C | 71% | 1010.5 hPa | 0 mm | - | 674 W/m² | - |
| 1777751148 | 17.22° C | 72% | 1010.9 hPa | 0 mm | - | 531 W/m² | - |
| 1777750233 | 17.78° C | 73% | 1010.6 hPa | 0 mm | - | 648 W/m² | - |
* Rain latest hour (hover to see other rain measurements)
** Current wind speed in m/s (hover to see current wind gust speed)